Time;durP1;ratioP1;P1;durP2;ratioP2;P2;SDS_P1;SDS_P2;PMS_P1;PMS_P2;Temp;Humidity;BMP_temperature;BMP_pressure;BME280_temperature;BME280_humidity;BME280_pressure;Samples;Min_cycle;Max_cycle;Signal;HPM_P1;HPM_P2
2023/04/26 00:03:34;;;;;;;7.87;2.20;;;;;;;5.64;87.33;100157.83;5007533;57;1134592;-78
2023/04/26 00:08:42;;;;;;;9.95;2.37;;;;;;;5.58;87.91;100169.16;4963947;56;1134647;-78
2023/04/26 00:13:47;;;;;;;7.90;2.73;;;;;;;5.51;88.59;100167.38;4907601;57;1134597;-78
2023/04/26 00:18:53;;;;;;;5.50;2.00;;;;;;;5.41;89.43;100161.49;4891161;57;1134639;-77
2023/04/26 00:23:58;;;;;;;6.70;2.70;;;;;;;5.38;90.07;100162.98;5096510;56;1134566;-77
2023/04/26 00:29:06;;;;;;;9.00;2.63;;;;;;;5.29;90.74;100160.01;5087785;56;1134573;-77
2023/04/26 00:34:11;;;;;;;6.40;1.95;;;;;;;5.25;90.98;100169.45;5087346;56;1134634;-78
2023/04/26 00:39:17;;;;;;;5.73;1.90;;;;;;;5.23;91.78;100168.70;5063868;56;1134652;-78
2023/04/26 00:44:22;;;;;;;9.08;2.75;;;;;;;5.18;92.44;100173.41;5009731;56;1134460;-78
2023/04/26 00:49:28;;;;;;;7.87;1.95;;;;;;;5.19;92.49;100171.16;5087617;56;1134573;-77
2023/04/26 00:54:34;;;;;;;5.85;1.95;;;;;;;5.16;92.56;100171.34;5107637;56;1134588;-77
2023/04/26 00:59:40;;;;;;;7.05;1.90;;;;;;;5.15;92.52;100174.90;5085488;56;1251249;-77
2023/04/26 01:04:46;;;;;;;6.00;2.52;;;;;;;5.14;92.48;100181.08;5082555;56;1134617;-77
2023/04/26 01:09:53;;;;;;;9.07;1.90;;;;;;;5.08;92.78;100182.27;5003949;57;1134516;-79
2023/04/26 01:15:00;;;;;;;7.30;1.67;;;;;;;5.06;92.25;100178.90;5047349;55;1134543;-78
2023/04/26 01:20:10;;;;;;;8.47;1.83;;;;;;;5.01;92.78;100177.52;5187109;55;1134725;-78
2023/04/26 01:25:17;;;;;;;7.57;1.70;;;;;;;5.01;92.85;100182.75;5177691;55;1134776;-78
2023/04/26 01:30:23;;;;;;;8.30;1.60;;;;;;;4.97;92.90;100187.80;5209275;55;1134637;-78
2023/04/26 01:35:28;;;;;;;10.03;2.57;;;;;;;4.96;92.54;100184.33;5184369;55;1134714;-78
2023/04/26 01:40:35;;;;;;;6.73;1.83;;;;;;;4.91;92.39;100181.97;5107676;55;1136824;-78
2023/04/26 01:45:42;;;;;;;5.63;1.43;;;;;;;4.80;93.36;100185.70;5106081;55;1134776;-78
2023/04/26 01:51:06;;;;;;;5.83;1.32;;;;;;;4.78;92.88;100195.89;5113330;56;1134559;-78
2023/04/26 01:56:11;;;;;;;4.40;1.40;;;;;;;4.70;93.58;100196.83;5100541;56;1134719;-78
2023/04/26 02:01:17;;;;;;;7.60;1.90;;;;;;;4.66;93.51;100197.93;5105248;56;1134896;-78
2023/04/26 02:06:23;;;;;;;2.63;1.27;;;;;;;4.62;93.39;100197.72;5119194;56;1134965;-78
2023/04/26 02:11:29;;;;;;;5.63;1.60;;;;;;;4.57;93.67;100201.94;5118189;55;1135039;-78
2023/04/26 02:16:35;;;;;;;4.97;1.32;;;;;;;4.53;93.62;100199.11;5116746;55;1134686;-77
2023/04/26 02:21:56;;;;;;;2.83;1.70;;;;;;;4.45;94.23;100196.92;5091712;56;1134730;-79
2023/04/26 02:27:04;;;;;;;6.73;1.30;;;;;;;4.38;95.00;100199.99;5119133;56;1135276;-78
2023/04/26 02:32:12;;;;;;;4.67;1.10;;;;;;;4.35;94.49;100197.08;5099901;56;1134638;-77
2023/04/26 02:37:17;;;;;;;8.80;2.30;;;;;;;4.30;95.06;100195.64;5107526;56;1134637;-77
2023/04/26 02:42:24;;;;;;;2.77;1.30;;;;;;;4.28;94.84;100192.30;5181990;55;1134778;-78
2023/04/26 02:47:29;;;;;;;4.93;1.20;;;;;;;4.21;94.82;100201.79;5121257;55;1250753;-78
2023/04/26 02:52:36;;;;;;;6.57;1.73;;;;;;;4.17;95.07;100205.97;5101079;56;1134732;-78
2023/04/26 02:57:42;;;;;;;5.90;1.40;;;;;;;4.13;94.85;100211.83;5098787;56;1134663;-79
2023/04/26 03:02:49;;;;;;;5.53;1.67;;;;;;;4.07;95.37;100209.58;5120202;56;1134593;-77
2023/04/26 03:07:55;;;;;;;5.27;1.50;;;;;;;4.03;95.03;100211.13;5142180;55;1134737;-78
2023/04/26 03:13:02;;;;;;;5.93;1.50;;;;;;;3.93;96.09;100209.50;5203628;55;1134679;-77
2023/04/26 03:18:08;;;;;;;3.77;1.30;;;;;;;3.88;96.24;100210.20;5205529;55;1134649;-77
2023/04/26 03:23:14;;;;;;;4.77;1.80;;;;;;;3.80;96.84;100211.95;5191802;55;1134582;-74
2023/04/26 03:28:20;;;;;;;9.17;1.80;;;;;;;3.76;97.68;100213.03;5185775;55;1134832;-76
2023/04/26 03:33:25;;;;;;;4.67;1.40;;;;;;;3.73;97.67;100212.34;5205797;55;1134703;-77
2023/04/26 03:38:31;;;;;;;6.93;1.53;;;;;;;3.69;97.44;100219.97;5156189;55;1134499;-76
2023/04/26 03:43:37;;;;;;;9.38;1.65;;;;;;;3.66;97.37;100221.01;5104845;56;1134573;-75
2023/04/26 03:48:43;;;;;;;10.18;2.00;;;;;;;3.58;98.88;100217.09;5107372;55;1134719;-76
2023/04/26 03:53:49;;;;;;;6.37;1.67;;;;;;;3.54;98.98;100223.79;5119210;56;1137036;-77
2023/04/26 03:58:55;;;;;;;9.07;1.67;;;;;;;3.50;99.27;100226.67;5102606;56;1135604;-76
2023/04/26 04:04:02;;;;;;;8.90;2.08;;;;;;;3.48;99.18;100231.14;5117467;55;1134583;-78
2023/04/26 04:09:08;;;;;;;5.33;1.40;;;;;;;3.46;99.73;100232.52;5130579;55;1134839;-75
2023/04/26 04:14:13;;;;;;;8.93;1.93;;;;;;;3.44;100.00;100236.98;5101721;56;1134631;-75
2023/04/26 04:19:19;;;;;;;7.13;1.70;;;;;;;3.44;100.00;100237.44;5096899;56;1136733;-75
2023/04/26 04:24:25;;;;;;;3.37;1.00;;;;;;;3.44;100.00;100237.44;5108759;56;1137121;-78
2023/04/26 04:29:31;;;;;;;6.83;1.90;;;;;;;3.45;100.00;100243.90;5101286;56;1137179;-74
2023/04/26 04:34:38;;;;;;;6.23;1.77;;;;;;;3.47;100.00;100247.75;5089094;56;1136848;-78
2023/04/26 04:39:44;;;;;;;4.40;1.20;;;;;;;3.46;100.00;100250.82;5099548;55;1136721;-77
2023/04/26 04:44:50;;;;;;;5.13;1.30;;;;;;;3.53;100.00;100261.78;5116171;55;1136766;-74
2023/04/26 04:49:57;;;;;;;9.10;1.50;;;;;;;3.54;100.00;100257.78;5099543;56;1136582;-77
2023/04/26 04:55:05;;;;;;;6.17;1.22;;;;;;;3.59;100.00;100265.39;5101679;56;1136671;-77
2023/04/26 05:00:14;;;;;;;6.93;1.37;;;;;;;3.63;100.00;100259.55;5125051;55;1137107;-75
2023/04/26 05:05:25;;;;;;;17.40;1.53;;;;;;;3.67;100.00;100272.36;5175305;55;1137385;-75
2023/04/26 05:10:31;;;;;;;7.60;1.50;;;;;;;3.73;100.00;100268.12;5066863;56;1138930;-76
2023/04/26 05:15:37;;;;;;;6.53;1.70;;;;;;;3.77;100.00;100279.27;4994120;57;1136873;-76
2023/04/26 05:20:42;;;;;;;8.95;1.42;;;;;;;3.88;100.00;100284.30;5017332;57;1137061;-77
2023/04/26 05:25:48;;;;;;;12.77;3.87;;;;;;;3.97;100.00;100290.83;5010970;57;1136996;-77
2023/04/26 05:31:12;;;;;;;29.42;13.00;;;;;;;4.13;100.00;100294.27;5004908;57;1254523;-76
2023/04/26 05:36:20;;;;;;;15.48;6.80;;;;;;;4.24;100.00;100301.55;4984868;57;1140989;-77
2023/04/26 05:41:25;;;;;;;15.67;4.20;;;;;;;4.40;100.00;100308.09;4947005;57;1138880;-77
2023/04/26 05:46:31;;;;;;;39.37;12.30;;;;;;;4.38;100.00;100310.80;5034006;56;1138915;-75
2023/04/26 05:51:37;;;;;;;18.23;6.50;;;;;;;4.34;99.83;100316.28;5043719;56;1141133;-75
2023/04/26 05:56:44;;;;;;;15.40;3.30;;;;;;;4.36;100.00;100323.12;5029479;56;1137250;-74
2023/04/26 06:01:50;;;;;;;16.75;3.90;;;;;;;4.42;100.00;100318.03;5010873;57;1138862;-76
2023/04/26 06:06:56;;;;;;;12.10;2.33;;;;;;;4.47;100.00;100322.52;4997186;56;1138742;-76
2023/04/26 06:12:02;;;;;;;17.70;5.37;;;;;;;4.51;99.35;100320.12;4922920;58;1138764;-76
2023/04/26 06:17:09;;;;;;;12.80;2.77;;;;;;;4.66;99.13;100329.73;4903202;57;1136762;-74
2023/04/26 06:22:14;;;;;;;22.87;5.07;;;;;;;4.83;98.01;100328.80;4974439;57;1137276;-74
2023/04/26 06:27:21;;;;;;;11.30;2.93;;;;;;;5.03;98.58;100325.04;4962408;57;1136771;-76
2023/04/26 06:32:28;;;;;;;8.85;1.80;;;;;;;5.27;97.47;100324.44;4961793;57;1136768;-76
2023/04/26 06:37:35;;;;;;;18.73;2.53;;;;;;;5.49;95.51;100334.98;4893529;57;1134844;-76
2023/04/26 06:42:42;;;;;;;12.35;2.98;;;;;;;5.56;93.95;100332.36;5022323;57;1145486;-75
2023/04/26 06:47:55;;;;;;;11.47;2.83;;;;;;;5.46;94.13;100336.00;5021953;56;1136826;-75
2023/04/26 06:53:02;;;;;;;8.60;2.52;;;;;;;5.40;93.67;100335.05;5039714;56;1237830;-76
2023/04/26 06:58:08;;;;;;;9.77;3.17;;;;;;;5.38;92.85;100338.22;5025349;57;1134631;-75
2023/04/26 07:03:13;;;;;;;11.00;2.70;;;;;;;5.51;94.53;100339.17;5011952;57;1134709;-75
2023/04/26 07:08:19;;;;;;;6.97;1.23;;;;;;;5.48;91.95;100342.01;4956354;57;1136633;-77
2023/04/26 07:13:25;;;;;;;10.03;2.60;;;;;;;5.51;92.21;100350.14;4951477;56;1134508;-75
2023/04/26 07:18:31;;;;;;;13.17;3.20;;;;;;;5.69;92.36;100356.91;4900549;57;1136631;-74
2023/04/26 07:23:37;;;;;;;19.43;4.97;;;;;;;5.82;91.03;100347.83;4932923;56;1136718;-77
2023/04/26 07:28:43;;;;;;;8.73;2.03;;;;;;;6.04;86.85;100348.25;4938387;56;1136861;-77
2023/04/26 07:33:49;;;;;;;7.47;1.50;;;;;;;6.08;84.46;100346.29;4944159;56;1134632;-76
2023/04/26 07:38:55;;;;;;;14.93;3.40;;;;;;;6.05;83.10;100352.57;4931304;56;1144129;-75
2023/04/26 07:44:01;;;;;;;4.55;1.92;;;;;;;6.27;85.06;100351.59;4923664;58;1136649;-75
2023/04/26 07:49:06;;;;;;;9.93;1.82;;;;;;;6.50;80.81;100359.83;5027117;57;1134541;-78
2023/04/26 07:54:12;;;;;;;9.63;1.70;;;;;;;6.68;79.06;100357.35;5008358;56;1134576;-75
2023/04/26 07:59:18;;;;;;;6.63;1.80;;;;;;;6.64;79.66;100377.72;5009490;57;1134698;-77
2023/04/26 08:04:31;;;;;;;9.30;1.95;;;;;;;6.55;78.11;100377.00;5028344;57;1134782;-77
2023/04/26 08:09:37;;;;;;;7.33;1.27;;;;;;;6.85;81.41;100382.09;4939727;57;1134652;-78
2023/04/26 08:14:42;;;;;;;10.67;1.60;;;;;;;6.91;76.66;100382.98;4964436;56;1134767;-77
2023/04/26 08:19:48;;;;;;;6.87;1.32;;;;;;;6.97;74.50;100386.55;4951855;57;1136609;-78
2023/04/26 08:24:56;;;;;;;9.97;1.40;;;;;;;7.23;74.80;100380.89;4957308;57;1134687;-76
2023/04/26 08:30:01;;;;;;;9.33;1.55;;;;;;;7.24;71.00;100383.89;4886792;58;1134657;-76
2023/04/26 08:35:08;;;;;;;8.15;1.62;;;;;;;7.21;72.39;100386.72;4917215;58;1134553;-76
2023/04/26 08:40:14;;;;;;;7.33;1.97;;;;;;;7.19;69.68;100379.87;4984166;57;1134773;-74
2023/04/26 08:45:24;;;;;;;7.33;1.73;;;;;;;7.29;69.61;100381.81;5012349;57;1134611;-77
2023/04/26 08:50:32;;;;;;;8.47;1.40;;;;;;;7.11;70.40;100386.12;4956624;57;1134580;-77
2023/04/26 08:55:39;;;;;;;5.87;1.90;;;;;;;6.91;71.29;100392.66;5051316;56;1134649;-78
2023/04/26 09:00:47;;;;;;;17.97;6.97;;;;;;;6.82;73.58;100397.20;4969542;56;1134577;-72
2023/04/26 09:05:54;;;;;;;11.27;3.33;;;;;;;6.80;75.74;100400.39;4956008;57;1136812;-78
2023/04/26 09:10:59;;;;;;;9.40;2.67;;;;;;;7.00;76.51;100396.03;5057405;56;1136673;-75
2023/04/26 09:16:05;;;;;;;17.20;3.95;;;;;;;7.14;75.14;100394.66;4955241;57;1134706;-76
2023/04/26 09:21:12;;;;;;;11.93;3.80;;;;;;;7.08;75.71;100402.09;4956246;57;1136638;-78
2023/04/26 09:26:21;;;;;;;6.03;1.90;;;;;;;7.01;77.16;100409.55;4975735;57;1136608;-75
2023/04/26 09:31:43;;;;;;;10.13;2.00;;;;;;;6.92;79.02;100419.32;4957210;57;1134576;-76
2023/04/26 09:36:57;;;;;;;12.77;3.07;;;;;;;6.59;83.02;100427.08;4958577;56;1136849;-75
2023/04/26 09:42:04;;;;;;;5.42;1.82;;;;;;;6.51;84.71;100411.44;5083041;56;1136822;-74
2023/04/26 09:47:12;;;;;;;10.07;2.50;;;;;;;6.65;85.00;100414.89;5061305;56;1134540;-75
2023/04/26 09:52:19;;;;;;;3.63;1.20;;;;;;;7.18;82.08;100410.58;5041050;57;1136567;-77
2023/04/26 09:57:24;;;;;;;5.20;1.33;;;;;;;7.48;69.82;100421.38;5041280;57;1134581;-76
2023/04/26 10:02:30;;;;;;;8.33;1.47;;;;;;;7.59;68.79;100421.03;5056368;56;1134657;-76
2023/04/26 10:07:36;;;;;;;7.08;1.52;;;;;;;7.67;65.48;100425.77;4976383;55;1134548;-77
2023/04/26 10:12:43;;;;;;;3.43;1.30;;;;;;;7.70;67.89;100415.88;5003500;57;1134593;-75
2023/04/26 10:17:48;;;;;;;2.72;1.10;;;;;;;7.76;66.44;100418.11;5014990;55;1134696;-79
2023/04/26 10:23:03;;;;;;;3.20;0.77;;;;;;;8.02;61.17;100411.53;4925701;56;1253704;-78
2023/04/26 10:28:08;;;;;;;1.00;0.70;;;;;;;8.31;62.07;100412.15;4984374;57;1134681;-77
2023/04/26 10:33:15;;;;;;;3.60;1.27;;;;;;;8.36;59.86;100415.34;4925497;57;1134790;-77
2023/04/26 10:38:20;;;;;;;8.33;1.60;;;;;;;8.22;63.28;100432.09;5021627;56;1134991;-77
2023/04/26 10:43:31;;;;;;;3.03;1.70;;;;;;;8.25;64.83;100424.45;4982088;56;1134669;-77
2023/04/26 10:48:37;;;;;;;4.50;1.63;;;;;;;8.31;59.83;100418.27;5001667;57;1134666;-75
2023/04/26 10:53:51;;;;;;;6.20;1.70;;;;;;;8.50;60.66;100419.65;5009731;57;1134787;-77
2023/04/26 10:59:13;;;;;;;4.15;1.32;;;;;;;9.01;60.19;100412.45;4962787;56;1134671;-78
2023/04/26 11:04:19;;;;;;;4.37;1.00;;;;;;;9.39;60.62;100422.81;4945306;58;1134643;-77
2023/04/26 11:09:43;;;;;;;1.90;1.23;;;;;;;9.07;55.92;100426.48;5023864;56;1134999;-78
2023/04/26 11:14:48;;;;;;;;;;;;;;;8.72;57.28;100447.48;5197815;55;1134640;-78
2023/04/26 11:19:54;;;;;;;3.67;1.47;;;;;;;8.49;59.70;100439.05;5213917;55;971898;-78
2023/04/26 11:25:01;;;;;;;2.93;1.53;;;;;;;8.36;60.81;100447.81;5162387;55;1132520;-75
2023/04/26 11:30:08;;;;;;;4.15;1.65;;;;;;;8.46;61.22;100438.78;5194868;55;1134618;-76
2023/04/26 11:35:15;;;;;;;5.70;2.23;;;;;;;8.65;64.07;100444.45;5214891;55;1134722;-77
2023/04/26 11:40:21;;;;;;;8.23;1.73;;;;;;;9.16;59.15;100442.98;5130747;55;1134679;-77
2023/04/26 11:45:26;;;;;;;3.37;1.73;;;;;;;9.22;56.55;100443.00;5192394;55;1134506;-77
2023/04/26 11:50:40;;;;;;;4.53;1.57;;;;;;;9.01;53.93;100441.46;5214413;55;1134744;-75
2023/04/26 11:55:45;;;;;;;;;;;;;;;8.81;57.74;100452.96;5198057;55;1134736;-77
2023/04/26 12:01:03;;;;;;;1.70;0.93;;;;;;;8.78;59.30;100445.26;5155074;55;972070;-77
2023/04/26 12:06:08;;;;;;;5.53;1.27;;;;;;;9.27;60.12;100440.40;5152306;55;1132590;-79
2023/04/26 12:11:17;;;;;;;3.07;1.77;;;;;;;9.78;58.62;100437.45;5169997;55;1136866;-77
2023/04/26 12:16:23;;;;;;;2.90;1.37;;;;;;;9.83;52.68;100439.28;5043000;56;1136593;-76
2023/04/26 12:21:29;;;;;;;4.73;1.77;;;;;;;9.67;54.24;100451.95;5062667;56;1136611;-79
2023/04/26 12:26:45;;;;;;;5.20;1.80;;;;;;;9.64;56.39;100454.81;5042819;56;1136683;-78
2023/04/26 12:31:50;;;;;;;4.00;1.47;;;;;;;9.49;52.15;100448.40;5086318;56;1136860;-78
2023/04/26 12:36:56;;;;;;;7.33;1.80;;;;;;;9.48;55.75;100446.72;5128032;56;1136664;-77
2023/04/26 12:42:02;;;;;;;6.17;1.43;;;;;;;9.50;56.35;100458.48;5062837;56;1136644;-76
2023/04/26 12:47:07;;;;;;;6.70;1.53;;;;;;;9.42;54.50;100455.58;5078029;56;1136828;-77
2023/04/26 12:52:13;;;;;;;3.47;1.40;;;;;;;9.46;56.98;100466.29;5043045;56;1136825;-75
2023/04/26 12:57:20;;;;;;;4.40;1.97;;;;;;;9.63;54.81;100467.65;5062279;57;1136706;-76
2023/04/26 13:02:26;;;;;;;11.50;4.43;;;;;;;9.63;50.37;100466.33;5117977;56;1136565;-78
2023/04/26 13:07:34;;;;;;;11.30;3.90;;;;;;;9.53;51.14;100468.34;5122136;56;1138688;-76
2023/04/26 13:12:40;;;;;;;4.23;1.73;;;;;;;9.37;53.67;100473.55;5055873;56;1138658;-76
2023/04/26 13:17:45;;;;;;;14.07;3.57;;;;;;;9.19;55.88;100486.28;5187333;55;1134602;-77
2023/04/26 13:22:51;;;;;;;7.60;2.30;;;;;;;9.03;58.43;100487.86;5189452;55;1136794;-76
2023/04/26 13:27:56;;;;;;;3.12;1.50;;;;;;;9.02;59.23;100494.56;5185189;55;1134614;-74
2023/04/26 13:33:03;;;;;;;9.13;2.10;;;;;;;9.49;60.23;100490.64;5102727;56;1134561;-76
2023/04/26 13:38:09;;;;;;;5.60;2.05;;;;;;;9.85;55.26;100479.16;5168382;55;1136622;-75
2023/04/26 13:43:14;;;;;;;10.13;2.83;;;;;;;9.80;52.79;100494.49;5190520;56;1136663;-78
2023/04/26 13:48:20;;;;;;;8.03;2.00;;;;;;;9.56;52.68;100491.52;5185291;55;1138702;-79
2023/04/26 13:53:26;;;;;;;5.47;1.43;;;;;;;9.36;55.42;100503.53;5165328;55;1136687;-79
2023/04/26 13:58:31;;;;;;;6.97;2.90;;;;;;;9.11;59.06;100519.83;5191035;55;1134554;-79
2023/04/26 14:03:37;;;;;;;7.30;2.73;;;;;;;8.91;59.99;100515.59;5118292;55;1134876;-79
2023/04/26 14:08:42;;;;;;;9.27;1.80;;;;;;;8.80;60.89;100505.33;4996989;56;1134646;-78
2023/04/26 14:13:49;;;;;;;3.40;2.17;;;;;;;8.85;62.77;100510.77;5018841;57;1134602;-78
2023/04/26 14:18:55;;;;;;;6.40;2.80;;;;;;;9.12;63.06;100511.44;5148532;55;1134546;-78
2023/04/26 14:24:00;;;;;;;11.77;1.80;;;;;;;9.31;62.18;100510.48;5091159;56;1134731;-78
2023/04/26 14:29:06;;;;;;;7.45;1.55;;;;;;;9.56;62.13;100506.89;5127956;56;1138701;-78
2023/04/26 14:34:12;;;;;;;5.03;1.42;;;;;;;9.89;59.19;100507.52;5128437;56;1136820;-78
2023/04/26 14:39:17;;;;;;;3.60;1.37;;;;;;;10.23;57.22;100502.69;4956629;57;1136789;-79
2023/04/26 14:44:25;;;;;;;2.77;1.20;;;;;;;10.53;53.63;100510.57;5009471;56;1139014;-78
2023/04/26 14:49:30;;;;;;;11.47;5.03;;;;;;;10.80;55.79;100499.15;5132940;55;1138710;-78
2023/04/26 14:54:41;;;;;;;4.80;1.27;;;;;;;10.78;49.95;100499.75;5020409;56;1140871;-79
2023/04/26 14:59:47;;;;;;;8.00;1.90;;;;;;;10.43;48.92;100497.20;5036854;56;1138904;-77
2023/04/26 15:04:52;;;;;;;7.30;1.73;;;;;;;10.13;51.63;100508.77;5042990;56;1138834;-76
2023/04/26 15:09:58;;;;;;;5.37;1.50;;;;;;;10.08;53.20;100521.51;5066427;56;1138766;-75
2023/04/26 15:15:05;;;;;;;9.28;1.60;;;;;;;9.96;52.86;100520.61;5122336;56;1138740;-75
2023/04/26 15:20:11;;;;;;;7.58;2.87;;;;;;;9.92;53.55;100513.05;5016471;57;1136697;-78
2023/04/26 15:25:17;;;;;;;14.07;6.23;;;;;;;9.99;53.72;100511.13;5103150;57;1136604;-76
2023/04/26 15:30:23;;;;;;;6.03;2.40;;;;;;;10.07;54.83;100519.82;5049491;56;1138975;-75
2023/04/26 15:35:28;;;;;;;6.60;3.40;;;;;;;10.09;49.68;100518.72;5079876;56;1138959;-78
2023/04/26 15:40:34;;;;;;;10.40;3.37;;;;;;;10.12;48.20;100517.65;5079180;56;1138826;-78
2023/04/26 15:45:39;;;;;;;6.53;2.63;;;;;;;9.97;48.13;100522.30;4973644;56;1140868;-78
2023/04/26 15:50:45;;;;;;;3.70;1.90;;;;;;;9.91;49.46;100536.45;4866436;58;1137089;-77
2023/04/26 15:55:51;;;;;;;10.40;3.87;;;;;;;9.84;50.34;100531.61;4918996;58;1136626;-70
2023/04/26 16:00:57;;;;;;;8.80;3.40;;;;;;;9.73;50.29;100533.38;5053752;56;1138812;-75
2023/04/26 16:06:03;;;;;;;6.00;2.07;;;;;;;9.69;51.16;100534.07;5041837;57;1136647;-76
2023/04/26 16:11:08;;;;;;;6.33;1.60;;;;;;;9.67;50.42;100529.38;5017239;56;1136652;-75
2023/04/26 16:16:14;;;;;;;5.85;1.57;;;;;;;9.63;49.34;100538.95;5014008;58;1136653;-74
2023/04/26 16:21:20;;;;;;;6.10;2.30;;;;;;;9.57;49.58;100542.90;5088168;56;1136880;-76
2023/04/26 16:26:26;;;;;;;6.47;1.83;;;;;;;9.52;49.49;100552.94;5125783;55;1136782;-75
2023/04/26 16:31:32;;;;;;;4.63;1.50;;;;;;;9.39;50.61;100562.23;5141930;56;1136652;-74
2023/04/26 16:36:37;;;;;;;3.07;1.93;;;;;;;9.19;54.43;100575.99;5095383;56;1136802;-77
2023/04/26 16:41:43;;;;;;;5.40;2.03;;;;;;;9.10;55.19;100571.38;5122108;55;1134607;-75
2023/04/26 16:46:48;;;;;;;2.15;1.35;;;;;;;9.10;55.47;100579.30;5042188;56;1134828;-71
2023/04/26 16:51:57;;;;;;;4.37;1.67;;;;;;;9.01;55.21;100569.41;5058406;57;1134799;-79
2023/04/26 16:57:02;;;;;;;10.13;4.97;;;;;;;9.07;55.23;100578.19;5163866;55;1134515;-77
2023/04/26 17:02:08;;;;;;;6.92;3.67;;;;;;;9.16;56.02;100577.56;5173884;55;1136699;-77
2023/04/26 17:07:15;;;;;;;6.90;2.34;;;;;;;9.28;56.25;100577.16;5132223;55;1134602;-78
2023/04/26 17:12:20;;;;;;;6.37;2.10;;;;;;;9.32;55.01;100582.59;5160265;55;1134676;-80
2023/04/26 17:17:26;;;;;;;12.87;2.93;;;;;;;9.22;54.30;100589.45;5041246;56;1134539;-80
2023/04/26 17:22:32;;;;;;;7.83;2.63;;;;;;;9.06;54.55;100590.53;5055115;56;1136550;-79
2023/04/26 17:27:37;;;;;;;5.67;2.30;;;;;;;8.93;54.15;100596.78;4999918;56;1134544;-77
2023/04/26 17:32:43;;;;;;;5.53;3.00;;;;;;;8.83;55.06;100603.17;4999863;57;1134573;-79
2023/04/26 17:37:48;;;;;;;3.53;1.73;;;;;;;8.78;56.02;100610.08;5003744;57;1134585;-80
2023/04/26 17:42:54;;;;;;;7.83;2.53;;;;;;;8.72;56.12;100615.75;4937509;58;1134595;-78
2023/04/26 17:48:00;;;;;;;6.03;2.40;;;;;;;8.68;57.08;100618.25;4994806;57;1134546;-79
2023/04/26 17:53:06;;;;;;;5.45;2.20;;;;;;;8.67;57.82;100623.16;4932737;57;1134633;-79
2023/04/26 17:58:12;;;;;;;6.45;1.77;;;;;;;8.66;58.79;100627.21;4965860;57;1134582;-77
2023/04/26 18:03:18;;;;;;;15.10;6.42;;;;;;;8.60;59.75;100634.20;4995017;58;1134494;-78
2023/04/26 18:08:24;;;;;;;17.47;5.87;;;;;;;8.57;60.01;100644.48;4997813;57;1136823;-78
2023/04/26 18:13:30;;;;;;;17.30;6.92;;;;;;;8.52;60.75;100641.33;5006355;56;1136721;-80
2023/04/26 18:18:35;;;;;;;20.70;9.80;;;;;;;8.56;61.36;100643.26;4999714;57;1136648;-78
2023/04/26 18:23:41;;;;;;;9.17;3.23;;;;;;;8.55;62.02;100654.30;5059278;56;1136746;-78
2023/04/26 18:28:47;;;;;;;7.87;3.27;;;;;;;8.53;62.35;100648.77;5018044;57;1134619;-75
2023/04/26 18:33:52;;;;;;;4.80;1.87;;;;;;;8.49;62.72;100646.80;5080743;57;1134524;-77
2023/04/26 18:38:58;;;;;;;8.80;2.50;;;;;;;8.45;62.50;100648.79;4919272;58;1134504;-74
2023/04/26 18:44:11;;;;;;;12.20;5.63;;;;;;;8.39;62.67;100653.64;4975404;58;1134621;-77
2023/04/26 18:49:11;;;;;;;11.20;3.77;;;;;;;8.31;63.52;100657.20;5006773;57;1136603;-77
2023/04/26 18:54:16;;;;;;;4.67;2.40;;;;;;;8.23;63.83;100658.20;4938106;57;1136979;-80
2023/04/26 18:59:22;;;;;;;115.57;51.53;;;;;;;8.17;64.00;100674.39;4963766;57;1134523;-74
2023/04/26 19:04:28;;;;;;;27.17;10.97;;;;;;;8.07;64.38;100678.95;5074122;56;1140840;-76
2023/04/26 19:09:36;;;;;;;14.53;7.57;;;;;;;7.95;64.57;100677.55;4933469;58;1138756;-77
2023/04/26 19:14:40;;;;;;;17.47;9.53;;;;;;;7.81;64.87;100683.70;5082721;56;1136882;-78
2023/04/26 19:19:46;;;;;;;11.90;5.37;;;;;;;7.71;65.14;100687.41;5079119;56;1136657;-78
2023/04/26 19:24:52;;;;;;;9.77;4.57;;;;;;;7.61;65.28;100694.20;5040747;56;1136681;-78
2023/04/26 19:29:59;;;;;;;34.00;10.63;;;;;;;7.50;65.74;100693.99;5068270;55;1134691;-78
2023/04/26 19:35:05;;;;;;;22.97;7.03;;;;;;;7.39;66.35;100697.77;5081869;55;1209383;-79
2023/04/26 19:40:11;;;;;;;11.50;5.10;;;;;;;7.27;66.72;100700.69;5047990;56;1136627;-79
2023/04/26 19:45:19;;;;;;;14.45;4.25;;;;;;;7.17;67.02;100703.98;4955409;57;1136630;-80
2023/04/26 19:50:26;;;;;;;21.73;9.67;;;;;;;7.09;67.56;100709.69;5002607;57;1136615;-79
2023/04/26 19:55:32;;;;;;;13.60;6.67;;;;;;;6.93;68.41;100708.91;5021996;56;1136724;-77
2023/04/26 20:00:39;;;;;;;6.10;3.27;;;;;;;6.83;68.88;100713.88;5010797;56;1136659;-78
2023/04/26 20:05:44;;;;;;;4.37;2.67;;;;;;;6.74;69.29;100713.08;5116304;56;1134492;-78
2023/04/26 20:10:50;;;;;;;11.20;3.40;;;;;;;6.66;69.61;100708.76;5103006;56;1134488;-78
2023/04/26 20:15:56;;;;;;;7.67;3.33;;;;;;;6.57;70.29;100709.30;5173280;55;1136636;-77
2023/04/26 20:21:02;;;;;;;7.40;3.17;;;;;;;6.50;70.49;100714.05;5091819;56;1134534;-77
2023/04/26 20:26:07;;;;;;;9.23;3.00;;;;;;;6.46;71.04;100713.84;5137888;55;1134743;-78
2023/04/26 20:31:13;;;;;;;8.03;3.35;;;;;;;6.38;71.25;100713.45;4998523;56;1134622;-78
2023/04/26 20:36:19;;;;;;;12.95;3.72;;;;;;;6.31;71.70;100709.00;4965693;57;1134576;-77
2023/04/26 20:41:25;;;;;;;12.15;3.75;;;;;;;6.24;71.99;100713.39;4996335;57;1136671;-77
2023/04/26 20:46:31;;;;;;;7.33;3.42;;;;;;;6.19;72.41;100716.73;4973974;57;1136689;-77
2023/04/26 20:51:36;;;;;;;8.87;3.80;;;;;;;6.12;72.52;100713.59;4996010;57;1134534;-77
2023/04/26 20:56:42;;;;;;;7.67;3.90;;;;;;;6.10;72.65;100714.63;4995015;57;1134804;-77
2023/04/26 21:01:47;;;;;;;11.97;5.00;;;;;;;;;;4924493;57;1134784;-77
2023/04/26 21:06:52;;;;;;;12.17;5.17;;;;;;;6.06;73.22;100716.58;5075919;56;817716;-78
2023/04/26 21:11:57;;;;;;;16.20;5.53;;;;;;;6.09;73.69;100720.34;5039587;56;1134712;-78
2023/04/26 21:17:04;;;;;;;10.72;6.25;;;;;;;6.08;73.92;100717.80;4912101;58;1255978;-77
2023/04/26 21:22:15;;;;;;;12.58;4.90;;;;;;;6.06;74.10;100718.35;4967873;57;1136780;-78
2023/04/26 21:27:20;;;;;;;15.00;6.55;;;;;;;6.03;74.22;100724.62;5078131;56;1136620;-77
2023/04/26 21:32:26;;;;;;;21.10;8.87;;;;;;;6.03;74.22;100723.77;5097637;56;1136873;-77
2023/04/26 21:37:32;;;;;;;11.73;6.28;;;;;;;5.94;74.49;100733.02;5070689;56;1136882;-78
2023/04/26 21:42:37;;;;;;;9.80;4.73;;;;;;;5.85;74.79;100734.78;5037920;57;1136682;-77
2023/04/26 21:47:43;;;;;;;13.93;5.20;;;;;;;5.76;75.13;100744.48;5098181;56;1134559;-77
2023/04/26 21:52:48;;;;;;;9.13;5.43;;;;;;;5.67;75.60;100747.11;5105060;56;1136649;-77
2023/04/26 21:57:54;;;;;;;13.90;5.80;;;;;;;5.64;75.79;100749.92;5053569;57;1134631;-77
2023/04/26 22:03:00;;;;;;;10.80;5.43;;;;;;;5.57;76.44;100762.51;5033797;57;1136603;-77
2023/04/26 22:08:06;;;;;;;11.83;5.97;;;;;;;5.49;77.04;100766.02;5086309;56;1137124;-77
2023/04/26 22:13:11;;;;;;;14.23;5.58;;;;;;;5.38;77.00;100774.89;5132614;56;1136567;-77
2023/04/26 22:18:17;;;;;;;15.87;6.00;;;;;;;5.35;77.43;100772.91;5112690;56;1136523;-77
2023/04/26 22:23:23;;;;;;;18.63;6.13;;;;;;;5.39;77.71;100779.67;5061764;56;1136848;-78
2023/04/26 22:28:28;;;;;;;130.40;25.23;;;;;;;5.42;77.73;100779.52;5058068;57;1136568;-77
2023/04/26 22:33:34;;;;;;;126.43;25.10;;;;;;;5.31;77.89;100773.53;5042571;56;1140875;-77
2023/04/26 22:38:40;;;;;;;51.77;12.23;;;;;;;5.27;78.15;100773.30;5122678;56;1140921;-77
2023/04/26 22:43:46;;;;;;;56.50;14.13;;;;;;;5.21;78.63;100782.77;5131404;56;1138873;-77
2023/04/26 22:48:51;;;;;;;22.37;6.93;;;;;;;5.15;79.25;100778.70;5128765;56;1138762;-77
2023/04/26 22:53:57;;;;;;;30.87;9.40;;;;;;;5.10;79.30;100776.77;5034259;57;1136590;-77
2023/04/26 22:59:02;;;;;;;31.23;9.93;;;;;;;5.12;79.46;100793.28;5034291;57;1136660;-77
2023/04/26 23:04:08;;;;;;;48.90;14.17;;;;;;;5.12;79.72;100788.03;5054419;57;1136657;-77
2023/04/26 23:09:13;;;;;;;54.00;13.22;;;;;;;5.13;80.02;100792.36;5109539;56;1140251;-77
2023/04/26 23:14:19;;;;;;;42.08;10.08;;;;;;;5.12;80.19;100796.36;5123028;56;1138832;-77
2023/04/26 23:19:25;;;;;;;22.27;7.53;;;;;;;5.10;80.95;100803.45;5143057;56;1138866;-76
2023/04/26 23:24:31;;;;;;;15.20;6.60;;;;;;;5.09;81.13;100803.06;5045907;56;1136630;-77